createdAt,value
2023-03-26T00:02:58.664Z,97168.72
2023-03-26T00:07:01.887Z,97161.53
2023-03-26T00:11:08.558Z,97164.59
2023-03-26T00:15:12.499Z,97160.00
2023-03-26T00:19:17.111Z,97166.47
2023-03-26T00:23:20.027Z,97149.88
2023-03-26T00:27:25.972Z,97157.28
2023-03-26T00:31:31.784Z,97151.09
2023-03-26T00:35:38.593Z,97156.94
2023-03-26T00:39:42.833Z,97147.50
2023-03-26T00:43:48.947Z,97144.88
2023-03-26T00:47:52.083Z,97141.00
2023-03-26T00:51:55.472Z,97133.19
2023-03-26T00:56:00.664Z,97127.66
2023-03-26T01:00:17.029Z,97126.03
2023-03-26T01:04:31.238Z,97116.41
2023-03-26T01:08:39.080Z,97110.06
2023-03-26T01:12:42.027Z,97102.25
2023-03-26T01:16:52.559Z,97091.19
2023-03-26T01:21:05.170Z,97099.13
2023-03-26T01:25:10.414Z,97092.09
2023-03-26T01:29:20.767Z,97094.44
2023-03-26T01:33:34.218Z,97091.75
2023-03-26T01:37:43.760Z,97092.59
2023-03-26T01:41:50.927Z,97094.03
2023-03-26T01:45:55.126Z,97099.56
2023-03-26T01:49:58.630Z,97096.97
2023-03-26T01:54:03.112Z,97092.94
2023-03-26T01:58:14.198Z,97090.16
2023-03-26T02:02:28.493Z,97091.75
2023-03-26T02:06:38.674Z,97082.63
2023-03-26T02:10:44.310Z,97082.25
2023-03-26T02:14:49.416Z,97075.19
2023-03-26T02:18:55.766Z,97076.28
2023-03-26T02:23:00.512Z,97090.97
2023-03-26T02:27:03.519Z,97086.53
2023-03-26T02:31:10.057Z,97087.84
2023-03-26T02:35:13.979Z,97093.84
2023-03-26T02:39:17.312Z,97080.63
2023-03-26T02:43:20.287Z,97074.81
2023-03-26T02:47:24.926Z,97072.63
2023-03-26T02:51:28.898Z,97070.69
2023-03-26T02:55:32.386Z,97056.38
2023-03-26T02:59:35.332Z,97069.50
2023-03-26T03:03:40.032Z,97060.00
2023-03-26T03:07:42.946Z,97063.69
2023-03-26T03:11:46.402Z,97074.41
2023-03-26T03:15:49.327Z,97063.44
2023-03-26T03:19:54.076Z,97063.28
2023-03-26T03:24:00.302Z,97074.66
2023-03-26T03:28:04.270Z,97068.72
2023-03-26T03:32:07.144Z,97072.41
2023-03-26T03:36:20.996Z,97070.69
2023-03-26T03:40:25.051Z,97076.25
2023-03-26T03:44:28.335Z,97072.03
2023-03-26T03:48:31.544Z,97078.19
2023-03-26T03:52:36.654Z,97073.34
2023-03-26T03:56:39.754Z,97066.50
2023-03-26T04:00:45.397Z,97067.84
2023-03-26T04:04:50.442Z,97064.94
2023-03-26T04:08:54.952Z,97072.16
2023-03-26T04:12:58.122Z,97072.50
2023-03-26T04:17:02.549Z,97064.69
2023-03-26T04:21:07.602Z,97054.13
2023-03-26T04:25:15.779Z,97049.91
2023-03-26T04:29:24.466Z,97048.69
2023-03-26T04:33:28.907Z,97051.19
2023-03-26T04:37:35.031Z,97048.00
2023-03-26T04:41:39.587Z,97049.00
2023-03-26T04:45:42.486Z,97040.38
2023-03-26T04:49:46.487Z,97030.78
2023-03-26T04:53:53.947Z,97032.03
2023-03-26T04:58:04.360Z,97036.25
2023-03-26T05:02:08.449Z,97030.53
2023-03-26T05:06:13.669Z,97031.06
2023-03-26T05:10:17.746Z,97025.22
2023-03-26T05:14:22.549Z,97015.63
2023-03-26T05:18:25.613Z,97010.94
2023-03-26T05:22:29.083Z,97013.06
2023-03-26T05:26:32.112Z,97012.13
2023-03-26T05:30:36.861Z,97005.16
2023-03-26T05:34:40.565Z,97013.97
2023-03-26T05:38:47.552Z,97019.19
2023-03-26T05:42:51.376Z,97013.72
2023-03-26T05:46:56.172Z,97017.66
2023-03-26T05:50:59.897Z,97018.78
2023-03-26T05:55:03.210Z,97007.25
2023-03-26T05:59:06.880Z,97016.59
2023-03-26T06:03:13.179Z,97012.63
2023-03-26T06:07:16.966Z,97017.41
2023-03-26T06:11:21.643Z,97018.50
2023-03-26T06:15:24.749Z,97008.75
2023-03-26T06:19:29.729Z,97012.66
2023-03-26T06:23:33.201Z,97019.34
2023-03-26T06:27:36.645Z,97013.19
2023-03-26T06:31:39.849Z,97017.25
2023-03-26T06:35:46.014Z,97009.22
2023-03-26T06:39:49.147Z,97005.63
2023-03-26T06:43:52.278Z,97000.44
2023-03-26T06:47:55.613Z,96994.53
2023-03-26T06:52:00.232Z,96994.22
2023-03-26T06:56:03.890Z,96991.06
2023-03-26T07:00:09.638Z,96991.59
2023-03-26T07:04:12.644Z,96988.94
2023-03-26T07:08:19.778Z,96995.06
2023-03-26T07:12:22.775Z,96980.38
2023-03-26T07:16:26.715Z,96982.16
2023-03-26T07:20:30.362Z,96973.91
2023-03-26T07:24:36.213Z,96966.66
2023-03-26T07:29:04.822Z,96963.78
2023-03-26T07:33:17.289Z,96954.22
2023-03-26T07:37:33.637Z,96947.47
2023-03-26T07:41:47.302Z,96937.41
2023-03-26T07:45:51.147Z,96922.19
2023-03-26T07:49:58.538Z,96910.63
2023-03-26T07:54:04.250Z,96911.03
2023-03-26T07:58:21.455Z,96902.94
2023-03-26T08:03:04.511Z,96903.59
2023-03-26T08:07:17.601Z,96891.41
2023-03-26T08:11:32.897Z,96883.41
2023-03-26T08:15:44.315Z,96876.47
2023-03-26T08:20:02.286Z,96864.56
2023-03-26T08:24:16.770Z,96848.13
2023-03-26T08:28:34.934Z,96848.56
2023-03-26T08:32:40.845Z,96843.31
2023-03-26T08:36:44.258Z,96845.28
2023-03-26T08:41:26.081Z,96840.50
2023-03-26T08:46:03.785Z,96819.81
2023-03-26T08:50:35.872Z,96802.97
2023-03-26T08:54:57.477Z,96792.56
2023-03-26T08:59:37.259Z,96781.56
2023-03-26T09:04:05.191Z,96773.50
2023-03-26T09:08:54.273Z,96765.19
2023-03-26T09:13:19.719Z,96744.56
2023-03-26T09:17:57.893Z,96736.50
2023-03-26T09:22:46.599Z,96736.81
2023-03-26T09:27:03.189Z,96714.94
2023-03-26T09:31:46.918Z,96708.94
2023-03-26T09:35:54.926Z,96692.88
2023-03-26T09:40:10.777Z,96667.38
2023-03-26T09:49:06.825Z,96651.63
2023-03-26T09:53:30.724Z,96645.16
2023-03-26T10:01:48.594Z,96629.53
2023-03-26T10:05:59.178Z,96619.38
2023-03-26T10:10:15.929Z,96619.56
2023-03-26T10:14:25.975Z,96608.31
2023-03-26T10:18:42.987Z,96599.84
2023-03-26T10:23:00.505Z,96596.03
2023-03-26T10:27:27.024Z,96587.84
2023-03-26T10:31:46.302Z,96570.00
2023-03-26T10:36:02.685Z,96566.31
2023-03-26T10:40:21.223Z,96553.38
2023-03-26T10:44:43.920Z,96531.91
2023-03-26T10:49:07.569Z,96538.38
2023-03-26T10:53:23.384Z,96528.41
2023-03-26T10:57:38.464Z,96516.03
2023-03-26T11:01:48.473Z,96510.47
2023-03-26T11:06:01.430Z,96506.78
2023-03-26T11:10:10.689Z,96495.69
2023-03-26T11:14:33.810Z,96488.81
2023-03-26T11:18:44.481Z,96482.72
2023-03-26T11:23:04.633Z,96481.22
2023-03-26T11:27:17.467Z,96475.19
2023-03-26T11:31:32.347Z,96479.00
2023-03-26T11:35:42.522Z,96489.16
2023-03-26T11:39:52.782Z,96491.00
2023-03-26T11:44:01.058Z,96489.22
2023-03-26T11:48:09.824Z,96493.19
2023-03-26T11:52:16.316Z,96503.22
2023-03-26T11:56:27.422Z,96510.84
2023-03-26T12:00:32.190Z,96526.81
2023-03-26T12:04:40.657Z,96531.94
2023-03-26T12:08:45.318Z,96539.25
2023-03-26T12:12:49.083Z,96520.25
2023-03-26T12:17:00.282Z,96521.19
2023-03-26T12:21:09.214Z,96530.13
2023-03-26T12:25:18.530Z,96484.50
2023-03-26T12:29:22.139Z,96479.66
2023-03-26T12:33:29.191Z,96481.91
2023-03-26T12:37:39.830Z,96489.41
2023-03-26T12:43:51.320Z,96484.09
2023-03-26T12:47:54.887Z,96484.84
2023-03-26T12:51:03.103Z,96481.22
2023-03-26T12:55:19.000Z,96480.47
2023-03-26T12:59:42.825Z,96484.75
2023-03-26T13:04:09.532Z,96470.22
2023-03-26T13:14:01.174Z,96465.78
2023-03-26T13:18:33.911Z,96470.09
2023-03-26T13:22:47.764Z,96465.75
2023-03-26T13:27:09.234Z,96468.44
2023-03-26T13:31:24.287Z,96477.44
2023-03-26T13:35:44.647Z,96473.75
2023-03-26T13:40:13.342Z,96480.78
2023-03-26T13:44:47.661Z,96464.56
2023-03-26T13:48:58.232Z,96448.47
2023-03-26T13:53:11.415Z,96443.81
2023-03-26T13:57:21.792Z,96435.53
2023-03-26T14:01:36.513Z,96418.25
2023-03-26T14:05:48.401Z,96428.50
2023-03-26T14:10:03.215Z,96415.75
2023-03-26T14:14:10.705Z,96430.94
2023-03-26T14:18:28.142Z,96435.66
2023-03-26T14:22:38.366Z,96445.75
2023-03-26T14:27:06.232Z,96448.53
2023-03-26T14:31:23.829Z,96409.09
2023-03-26T14:35:39.937Z,96414.13
2023-03-26T14:40:22.171Z,96405.75
2023-03-26T14:45:00.523Z,96416.13
2023-03-26T14:50:01.202Z,96411.50
2023-03-26T14:54:12.161Z,96420.13
2023-03-26T14:58:59.936Z,96400.19
2023-03-26T15:03:41.242Z,96390.38
2023-03-26T15:08:06.516Z,96377.41
2023-03-26T15:12:23.721Z,96360.47
2023-03-26T15:17:17.184Z,96359.84
2023-03-26T15:21:43.918Z,96345.66
2023-03-26T15:26:27.226Z,96358.13
2023-03-26T15:30:51.326Z,96356.69
2023-03-26T15:35:36.758Z,96350.84
2023-03-26T15:40:10.167Z,96364.59
2023-03-26T15:44:50.851Z,96374.09
2023-03-26T15:49:02.778Z,96374.31
2023-03-26T15:53:22.134Z,96375.41
2023-03-26T15:57:34.809Z,96367.75
2023-03-26T16:01:51.424Z,96368.84
2023-03-26T16:06:31.370Z,96352.56
2023-03-26T16:10:46.814Z,96346.78
2023-03-26T16:15:21.114Z,96359.09
2023-03-26T16:19:50.254Z,96348.47
2023-03-26T16:23:56.473Z,96345.69
2023-03-26T16:28:25.282Z,96354.59
2023-03-26T16:32:34.025Z,96354.81
2023-03-26T16:36:41.092Z,96357.91
2023-03-26T16:41:03.173Z,96360.53
2023-03-26T16:45:25.099Z,96359.19
2023-03-26T16:49:47.581Z,96363.66
2023-03-26T16:54:20.376Z,96358.22
2023-03-26T16:58:31.908Z,96360.47
2023-03-26T17:02:39.503Z,96356.25
2023-03-26T17:07:06.452Z,96355.66
2023-03-26T17:11:24.070Z,96356.88
2023-03-26T17:15:36.656Z,96347.25
2023-03-26T17:19:53.002Z,96351.69
2023-03-26T17:24:06.874Z,96340.88
2023-03-26T17:28:31.458Z,96317.94
2023-03-26T17:32:57.377Z,96305.13
2023-03-26T17:37:03.599Z,96316.38
2023-03-26T17:41:10.133Z,96315.16
2023-03-26T17:45:21.218Z,96319.59
2023-03-26T17:49:29.632Z,96332.66
2023-03-26T17:53:37.543Z,96345.69
2023-03-26T17:57:45.002Z,96347.72
2023-03-26T18:01:50.657Z,96338.47
2023-03-26T18:05:59.017Z,96336.88
2023-03-26T18:10:22.622Z,96319.59
2023-03-26T18:14:57.582Z,96311.16
2023-03-26T18:19:05.545Z,96302.13
2023-03-26T18:23:14.171Z,96291.47
2023-03-26T18:27:23.220Z,96291.28
2023-03-26T18:31:30.246Z,96298.31
2023-03-26T18:35:45.761Z,96311.97
2023-03-26T18:40:00.516Z,96299.13
2023-03-26T18:44:08.073Z,96318.00
2023-03-26T18:48:19.323Z,96319.59
2023-03-26T18:52:25.265Z,96312.34
2023-03-26T18:56:31.396Z,96307.50
2023-03-26T19:00:37.985Z,96296.84
2023-03-26T19:04:46.805Z,96293.47
2023-03-26T19:08:53.035Z,96286.81
2023-03-26T19:12:57.582Z,96280.19
2023-03-26T19:17:04.723Z,96281.41
2023-03-26T19:21:11.198Z,96268.16
2023-03-26T19:25:24.125Z,96276.59
2023-03-26T19:29:30.172Z,96271.56
2023-03-26T19:33:38.694Z,96265.13
2023-03-26T19:37:57.090Z,96257.09
2023-03-26T19:42:02.024Z,96247.06
2023-03-26T19:46:05.619Z,96240.47
2023-03-26T19:50:28.133Z,96241.44
2023-03-26T19:54:33.588Z,96240.03
2023-03-26T19:58:39.039Z,96235.22
2023-03-26T20:02:43.852Z,96234.00
2023-03-26T20:06:49.555Z,96231.81
2023-03-26T20:10:59.927Z,96227.59
2023-03-26T20:15:05.110Z,96226.97
2023-03-26T20:19:08.873Z,96233.41
2023-03-26T20:23:18.007Z,96232.00
2023-03-26T20:27:22.654Z,96237.59
2023-03-26T20:31:29.185Z,96236.38
2023-03-26T20:35:35.762Z,96235.16
2023-03-26T20:39:40.841Z,96235.97
2023-03-26T20:43:45.428Z,96238.72
2023-03-26T20:47:51.097Z,96233.13
2023-03-26T20:51:54.377Z,96229.06
2023-03-26T20:55:57.569Z,96224.69
2023-03-26T21:00:02.587Z,96223.47
2023-03-26T21:04:08.273Z,96231.34
2023-03-26T21:08:17.016Z,96235.56
2023-03-26T21:12:29.845Z,96229.56
2023-03-26T21:16:35.428Z,96232.00
2023-03-26T21:20:39.815Z,96231.59
2023-03-26T21:24:57.269Z,96228.00
2023-03-26T21:29:02.920Z,96230.97
2023-03-26T21:33:07.518Z,96235.56
2023-03-26T21:37:12.464Z,96238.00
2023-03-26T21:41:26.229Z,96235.16
2023-03-26T21:45:33.170Z,96239.97
2023-03-26T21:49:39.083Z,96240.16
2023-03-26T21:53:57.992Z,96236.34
2023-03-26T21:58:31.649Z,96240.34
2023-03-26T22:02:45.776Z,96251.94
2023-03-26T22:06:57.558Z,96260.31
2023-03-26T22:11:01.161Z,96254.66
2023-03-26T22:15:04.812Z,96250.22
2023-03-26T22:19:09.129Z,96255.69
2023-03-26T22:23:13.601Z,96261.25
2023-03-26T22:27:17.212Z,96255.97
2023-03-26T22:31:20.968Z,96259.06
2023-03-26T22:35:24.481Z,96257.81
2023-03-26T22:39:29.185Z,96256.16
2023-03-26T22:43:35.441Z,96251.69
2023-03-26T22:47:39.067Z,96246.47
2023-03-26T22:51:43.277Z,96248.81
2023-03-26T22:55:47.722Z,96246.38
2023-03-26T22:59:51.137Z,96235.56
2023-03-26T23:03:55.007Z,96222.94
2023-03-26T23:07:59.463Z,96220.72
2023-03-26T23:12:04.143Z,96223.69
2023-03-26T23:16:08.513Z,96225.44
2023-03-26T23:20:15.385Z,96224.81
2023-03-26T23:24:19.437Z,96227.19
2023-03-26T23:28:23.984Z,96225.72
2023-03-26T23:32:28.754Z,96226.50
2023-03-26T23:36:31.719Z,96235.44
2023-03-26T23:40:34.868Z,96215.16
2023-03-26T23:44:39.175Z,96226.97
2023-03-26T23:48:43.373Z,96226.75
2023-03-26T23:52:46.987Z,96235.91
2023-03-26T23:56:50.427Z,96232.44
